EA1BVF-3
43.15.22N 006.39.57W
IN63QG aprs.fi
zuletzt gehoert:
2022-12-01T03:15:35Z
zuerst gehoert:
2020-09-11T12:35:25Z

APRS Allande [IN63QG], 2 Stunde(n), EA1BVF-3 [04:22:35, 0s].
EA1BVF 43.15.22N 006.39.57WIN63QG 0.360km 297°WNW03:15:35Z Volt.=13.0 V - Temp.=1.1 C(3EA1BVF-3)
EA1CZ 43.05.15N 006.33.28WIN63RC 20.212km 156°SSE03:19:40ZWIDE3-3 ESAS3-3(3EA1CZ-2)
LETN 43.20.05N 006.22.69WIN63TI 24.224km 68°ENE03:00:03ZAerodromo de La Curiscada (Tineo): LEAS 010200Z 08008KT 050V130 9999 BKN022 OVC041 11/08 Q1019=
LEBO 43.01.62N 006.53.05WIN63NA 31.144km 217°SW03:00:03ZHelipuerto de Ibias: LEAS 010200Z 08008KT 050V130 9999 BKN022 OVC041 11/08 Q1019=
EB1GOD 43.27.96N 007.03.19WIN63LL 39.965km 307°NW03:17:54ZMMDVM MMDVM HS Hat 439.0000/439.0000 CC1
EA1IRT 43.31.98N 007.02.40WIN63LM 44.029km 315°NW03:17:55ZMMDVM MMDVM HS Dual Hat 439.9750/439.9750 CC1
EC1KV 43.34.01N 006.16.01WIN63UN 47.011km 42°NE03:04:30ZALBUERNE(3EC1KV-1)

aprs.pl 5.0.011w DL3EL © 2006-2021 [7957406]